sensor_id;sensor_type;location;lat;lon;timestamp;P1;durP1;ratioP1;P2;durP2;ratioP2
48285;SDS011;34102;47.716;10.296;2022-11-06T06:32:23;42.25;;;3.17;;
48285;SDS011;34102;47.716;10.296;2022-11-06T06:34:48;47.60;;;2.97;;
48285;SDS011;34102;47.716;10.296;2022-11-06T06:37:13;83.75;;;4.05;;
48285;SDS011;34102;47.716;10.296;2022-11-06T06:39:39;12.10;;;1.92;;
48285;SDS011;34102;47.716;10.296;2022-11-06T06:42:04;27.27;;;2.65;;
48285;SDS011;34102;47.716;10.296;2022-11-06T06:44:30;69.43;;;4.20;;
48285;SDS011;34102;47.716;10.296;2022-11-06T06:46:55;54.80;;;3.33;;
48285;SDS011;34102;47.716;10.296;2022-11-06T06:49:20;50.83;;;3.15;;
48285;SDS011;34102;47.716;10.296;2022-11-06T06:51:49;51.20;;;2.88;;
48285;SDS011;34102;47.716;10.296;2022-11-06T06:54:14;80.07;;;4.28;;
48285;SDS011;34102;47.716;10.296;2022-11-06T06:56:40;76.18;;;2.72;;
48285;SDS011;34102;47.716;10.296;2022-11-06T06:59:05;44.33;;;2.72;;
48285;SDS011;34102;47.716;10.296;2022-11-06T07:01:31;27.90;;;2.38;;
48285;SDS011;34102;47.716;10.296;2022-11-06T07:03:56;19.67;;;1.73;;
48285;SDS011;34102;47.716;10.296;2022-11-06T07:06:22;36.67;;;2.40;;
48285;SDS011;34102;47.716;10.296;2022-11-06T07:08:48;22.15;;;2.08;;
48285;SDS011;34102;47.716;10.296;2022-11-06T07:11:13;17.70;;;5.78;;
48285;SDS011;34102;47.716;10.296;2022-11-06T07:13:39;9.43;;;2.20;;
48285;SDS011;34102;47.716;10.296;2022-11-06T07:16:04;11.95;;;1.85;;
48285;SDS011;34102;47.716;10.296;2022-11-06T07:18:30;13.35;;;1.50;;
48285;SDS011;34102;47.716;10.296;2022-11-06T07:20:55;9.85;;;2.13;;
48285;SDS011;34102;47.716;10.296;2022-11-06T07:23:21;5.03;;;1.60;;
48285;SDS011;34102;47.716;10.296;2022-11-06T07:25:50;1.88;;;1.20;;
48285;SDS011;34102;47.716;10.296;2022-11-06T07:28:15;1.63;;;0.90;;
48285;SDS011;34102;47.716;10.296;2022-11-06T07:30:42;2.92;;;1.20;;
48285;SDS011;34102;47.716;10.296;2022-11-06T07:33:07;4.93;;;1.92;;
48285;SDS011;34102;47.716;10.296;2022-11-06T07:35:32;6.28;;;2.17;;
48285;SDS011;34102;47.716;10.296;2022-11-06T07:38:01;6.85;;;2.20;;
48285;SDS011;34102;47.716;10.296;2022-11-06T07:40:27;10.90;;;1.90;;
48285;SDS011;34102;47.716;10.296;2022-11-06T07:42:52;5.15;;;1.67;;
48285;SDS011;34102;47.716;10.296;2022-11-06T07:45:17;8.15;;;1.55;;
48285;SDS011;34102;47.716;10.296;2022-11-06T07:47:42;16.55;;;1.77;;
48285;SDS011;34102;47.716;10.296;2022-11-06T07:50:08;3.97;;;1.17;;
48285;SDS011;34102;47.716;10.296;2022-11-06T07:52:33;2.78;;;1.60;;
48285;SDS011;34102;47.716;10.296;2022-11-06T07:54:58;2.00;;;1.30;;
48285;SDS011;34102;47.716;10.296;2022-11-06T07:57:24;5.50;;;1.35;;
48285;SDS011;34102;47.716;10.296;2022-11-06T07:59:49;8.63;;;1.20;;
48285;SDS011;34102;47.716;10.296;2022-11-06T08:02:14;2.20;;;1.10;;
48285;SDS011;34102;47.716;10.296;2022-11-06T08:04:41;3.38;;;0.93;;
48285;SDS011;34102;47.716;10.296;2022-11-06T08:07:06;2.28;;;0.90;;
48285;SDS011;34102;47.716;10.296;2022-11-06T08:09:32;2.92;;;0.90;;
48285;SDS011;34102;47.716;10.296;2022-11-06T08:11:57;1.45;;;1.00;;
48285;SDS011;34102;47.716;10.296;2022-11-06T08:14:22;2.10;;;1.33;;
48285;SDS011;34102;47.716;10.296;2022-11-06T08:16:47;3.90;;;1.40;;
48285;SDS011;34102;47.716;10.296;2022-11-06T08:19:13;2.47;;;1.27;;
48285;SDS011;34102;47.716;10.296;2022-11-06T08:21:38;1.65;;;0.80;;
48285;SDS011;34102;47.716;10.296;2022-11-06T08:24:04;2.08;;;1.15;;
48285;SDS011;34102;47.716;10.296;2022-11-06T08:26:29;1.85;;;1.10;;
48285;SDS011;34102;47.716;10.296;2022-11-06T08:28:54;1.27;;;0.90;;
48285;SDS011;34102;47.716;10.296;2022-11-06T08:31:21;1.90;;;1.30;;
48285;SDS011;34102;47.716;10.296;2022-11-06T08:33:47;2.17;;;1.20;;
48285;SDS011;34102;47.716;10.296;2022-11-06T08:36:12;3.00;;;1.52;;
48285;SDS011;34102;47.716;10.296;2022-11-06T08:38:38;2.20;;;1.45;;
48285;SDS011;34102;47.716;10.296;2022-11-06T08:41:07;2.00;;;1.15;;
48285;SDS011;34102;47.716;10.296;2022-11-06T08:43:33;1.52;;;1.10;;
48285;SDS011;34102;47.716;10.296;2022-11-06T08:45:58;1.67;;;1.10;;
48285;SDS011;34102;47.716;10.296;2022-11-06T08:48:24;3.05;;;1.15;;
48285;SDS011;34102;47.716;10.296;2022-11-06T08:50:49;2.88;;;1.42;;
48285;SDS011;34102;47.716;10.296;2022-11-06T08:53:14;1.98;;;1.40;;
48285;SDS011;34102;47.716;10.296;2022-11-06T08:55:40;2.03;;;1.40;;
48285;SDS011;34102;47.716;10.296;2022-11-06T08:58:05;2.40;;;1.17;;
48285;SDS011;34102;47.716;10.296;2022-11-06T09:00:31;3.53;;;2.33;;
48285;SDS011;34102;47.716;10.296;2022-11-06T09:02:59;1.23;;;0.80;;
48285;SDS011;34102;47.716;10.296;2022-11-06T09:05:25;0.95;;;0.70;;
48285;SDS011;34102;47.716;10.296;2022-11-06T09:07:50;1.10;;;0.80;;
48285;SDS011;34102;47.716;10.296;2022-11-06T09:10:15;1.15;;;0.80;;
48285;SDS011;34102;47.716;10.296;2022-11-06T09:12:41;2.90;;;0.95;;
48285;SDS011;34102;47.716;10.296;2022-11-06T09:15:06;2.58;;;1.70;;
48285;SDS011;34102;47.716;10.296;2022-11-06T09:17:32;1.77;;;1.00;;
48285;SDS011;34102;47.716;10.296;2022-11-06T09:19:57;2.95;;;1.77;;
48285;SDS011;34102;47.716;10.296;2022-11-06T09:22:22;2.08;;;1.10;;
48285;SDS011;34102;47.716;10.296;2022-11-06T09:24:47;1.13;;;0.63;;
48285;SDS011;34102;47.716;10.296;2022-11-06T09:27:13;1.25;;;0.75;;
48285;SDS011;34102;47.716;10.296;2022-11-06T09:29:39;0.90;;;0.70;;
48285;SDS011;34102;47.716;10.296;2022-11-06T09:32:05;0.95;;;0.45;;
48285;SDS011;34102;47.716;10.296;2022-11-06T09:34:30;2.05;;;1.00;;
48285;SDS011;34102;47.716;10.296;2022-11-06T09:36:55;1.10;;;0.40;;
48285;SDS011;34102;47.716;10.296;2022-11-06T09:39:21;0.85;;;0.40;;
48285;SDS011;34102;47.716;10.296;2022-11-06T09:41:52;1.42;;;0.60;;
48285;SDS011;34102;47.716;10.296;2022-11-06T09:44:29;0.68;;;0.40;;
48285;SDS011;34102;47.716;10.296;2022-11-06T09:46:57;0.95;;;0.57;;
48285;SDS011;34102;47.716;10.296;2022-11-06T09:52:15;0.80;;;0.47;;
48285;SDS011;34102;47.716;10.296;2022-11-06T09:54:44;1.15;;;0.60;;
48285;SDS011;34102;47.716;10.296;2022-11-06T09:57:21;0.93;;;0.60;;
48285;SDS011;34102;47.716;10.296;2022-11-06T09:59:51;0.63;;;0.40;;
48285;SDS011;34102;47.716;10.296;2022-11-06T10:04:50;1.02;;;0.40;;
48285;SDS011;34102;47.716;10.296;2022-11-06T10:07:24;2.35;;;1.48;;
48285;SDS011;34102;47.716;10.296;2022-11-06T10:09:51;1.95;;;1.10;;
48285;SDS011;34102;47.716;10.296;2022-11-06T10:12:19;1.83;;;0.85;;
48285;SDS011;34102;47.716;10.296;2022-11-06T10:20:11;1.65;;;0.80;;
48285;SDS011;34102;47.716;10.296;2022-11-06T10:22:39;1.45;;;0.70;;
48285;SDS011;34102;47.716;10.296;2022-11-06T10:27:38;1.85;;;0.60;;
48285;SDS011;34102;47.716;10.296;2022-11-06T10:35:17;1.85;;;0.50;;
48285;SDS011;34102;47.716;10.296;2022-11-06T10:40:28;1.33;;;0.50;;
48285;SDS011;34102;47.716;10.296;2022-11-06T10:43:41;1.13;;;0.63;;
48285;SDS011;34102;47.716;10.296;2022-11-06T10:45:40;0.80;;;0.50;;
48285;SDS011;34102;47.716;10.296;2022-11-06T10:48:25;1.52;;;0.40;;
48285;SDS011;34102;47.716;10.296;2022-11-06T10:51:03;0.80;;;0.30;;
48285;SDS011;34102;47.716;10.296;2022-11-06T10:53:38;0.70;;;0.45;;
48285;SDS011;34102;47.716;10.296;2022-11-06T10:58:31;0.90;;;0.50;;
48285;SDS011;34102;47.716;10.296;2022-11-06T11:01:00;1.10;;;0.40;;
48285;SDS011;34102;47.716;10.296;2022-11-06T11:05:54;1.23;;;0.80;;
48285;SDS011;34102;47.716;10.296;2022-11-06T11:13:38;1.20;;;0.77;;
48285;SDS011;34102;47.716;10.296;2022-11-06T11:16:04;0.90;;;0.40;;
48285;SDS011;34102;47.716;10.296;2022-11-06T11:18:36;1.65;;;0.57;;
48285;SDS011;34102;47.716;10.296;2022-11-06T11:21:15;1.13;;;0.35;;
48285;SDS011;34102;47.716;10.296;2022-11-06T11:23:44;1.42;;;0.73;;
48285;SDS011;34102;47.716;10.296;2022-11-06T11:28:48;1.08;;;0.70;;
48285;SDS011;34102;47.716;10.296;2022-11-06T11:31:15;4.35;;;1.17;;
48285;SDS011;34102;47.716;10.296;2022-11-06T11:33:46;9.35;;;5.75;;
48285;SDS011;34102;47.716;10.296;2022-11-06T11:36:12;1.02;;;0.60;;
48285;SDS011;34102;47.716;10.296;2022-11-06T11:38:38;0.63;;;0.40;;
48285;SDS011;34102;47.716;10.296;2022-11-06T11:41:14;0.88;;;0.50;;
48285;SDS011;34102;47.716;10.296;2022-11-06T11:43:54;1.02;;;0.60;;
48285;SDS011;34102;47.716;10.296;2022-11-06T11:51:12;1.10;;;0.55;;
48285;SDS011;34102;47.716;10.296;2022-11-06T11:53:40;1.05;;;0.50;;
48285;SDS011;34102;47.716;10.296;2022-11-06T11:56:05;0.93;;;0.50;;
48285;SDS011;34102;47.716;10.296;2022-11-06T11:58:31;0.80;;;0.47;;
48285;SDS011;34102;47.716;10.296;2022-11-06T12:00:58;2.20;;;0.50;;
48285;SDS011;34102;47.716;10.296;2022-11-06T12:03:25;1.00;;;0.65;;
48285;SDS011;34102;47.716;10.296;2022-11-06T12:05:51;0.80;;;0.40;;
48285;SDS011;34102;47.716;10.296;2022-11-06T12:08:21;1.13;;;0.45;;
48285;SDS011;34102;47.716;10.296;2022-11-06T12:10:48;2.35;;;0.90;;
48285;SDS011;34102;47.716;10.296;2022-11-06T12:13:20;2.90;;;1.08;;
48285;SDS011;34102;47.716;10.296;2022-11-06T12:18:21;0.80;;;0.52;;
48285;SDS011;34102;47.716;10.296;2022-11-06T12:20:49;0.60;;;0.40;;
48285;SDS011;34102;47.716;10.296;2022-11-06T12:23:27;1.48;;;0.80;;
48285;SDS011;34102;47.716;10.296;2022-11-06T12:25:57;1.10;;;0.55;;
48285;SDS011;34102;47.716;10.296;2022-11-06T12:28:23;1.40;;;0.80;;
48285;SDS011;34102;47.716;10.296;2022-11-06T12:30:51;1.30;;;0.60;;
48285;SDS011;34102;47.716;10.296;2022-11-06T12:33:21;1.83;;;1.15;;
48285;SDS011;34102;47.716;10.296;2022-11-06T12:35:49;0.75;;;0.60;;
48285;SDS011;34102;47.716;10.296;2022-11-06T12:40:50;2.15;;;1.20;;
48285;SDS011;34102;47.716;10.296;2022-11-06T12:43:24;2.95;;;0.80;;
48285;SDS011;34102;47.716;10.296;2022-11-06T12:53:44;0.80;;;0.40;;
48285;SDS011;34102;47.716;10.296;2022-11-06T12:56:25;1.15;;;0.63;;
48285;SDS011;34102;47.716;10.296;2022-11-06T13:04:14;1.48;;;0.70;;
48285;SDS011;34102;47.716;10.296;2022-11-06T13:14:29;1.20;;;0.60;;
48285;SDS011;34102;47.716;10.296;2022-11-06T13:16:59;1.08;;;0.60;;
48285;SDS011;34102;47.716;10.296;2022-11-06T13:22:18;0.95;;;0.73;;
48285;SDS011;34102;47.716;10.296;2022-11-06T13:24:47;2.10;;;0.73;;
48285;SDS011;34102;47.716;10.296;2022-11-06T13:29:40;0.60;;;0.60;;
48285;SDS011;34102;47.716;10.296;2022-11-06T13:32:08;1.33;;;0.80;;
48285;SDS011;34102;47.716;10.296;2022-11-06T13:34:36;1.45;;;0.50;;
48285;SDS011;34102;47.716;10.296;2022-11-06T13:37:02;1.38;;;0.80;;
48285;SDS011;34102;47.716;10.296;2022-11-06T13:39:31;2.60;;;1.10;;
48285;SDS011;34102;47.716;10.296;2022-11-06T13:41:57;2.05;;;0.90;;
48285;SDS011;34102;47.716;10.296;2022-11-06T13:44:23;1.45;;;0.85;;
48285;SDS011;34102;47.716;10.296;2022-11-06T13:46:57;0.73;;;0.55;;
48285;SDS011;34102;47.716;10.296;2022-11-06T13:49:29;2.97;;;0.80;;
48285;SDS011;34102;47.716;10.296;2022-11-06T13:51:58;1.30;;;0.80;;
48285;SDS011;34102;47.716;10.296;2022-11-06T13:54:31;1.67;;;0.82;;
48285;SDS011;34102;47.716;10.296;2022-11-06T13:57:06;1.25;;;0.98;;
48285;SDS011;34102;47.716;10.296;2022-11-06T13:59:40;1.65;;;0.90;;
48285;SDS011;34102;47.716;10.296;2022-11-06T14:02:28;1.35;;;0.90;;
48285;SDS011;34102;47.716;10.296;2022-11-06T14:07:43;1.50;;;0.70;;
48285;SDS011;34102;47.716;10.296;2022-11-06T14:10:19;1.13;;;0.70;;
48285;SDS011;34102;47.716;10.296;2022-11-06T14:12:45;1.60;;;1.13;;
48285;SDS011;34102;47.716;10.296;2022-11-06T14:17:58;3.58;;;2.10;;
48285;SDS011;34102;47.716;10.296;2022-11-06T14:20:34;1.95;;;1.38;;
48285;SDS011;34102;47.716;10.296;2022-11-06T14:25:54;1.20;;;0.77;;
48285;SDS011;34102;47.716;10.296;2022-11-06T14:28:27;1.35;;;0.90;;
48285;SDS011;34102;47.716;10.296;2022-11-06T14:30:53;1.40;;;0.70;;
48285;SDS011;34102;47.716;10.296;2022-11-06T14:36:32;6.63;;;4.63;;
48285;SDS011;34102;47.716;10.296;2022-11-06T14:38:57;4.10;;;3.45;;
48285;SDS011;34102;47.716;10.296;2022-11-06T14:46:55;2.42;;;1.02;;
48285;SDS011;34102;47.716;10.296;2022-11-06T14:51:56;1.67;;;0.90;;
48285;SDS011;34102;47.716;10.296;2022-11-06T14:54:22;1.08;;;0.55;;
48285;SDS011;34102;47.716;10.296;2022-11-06T14:56:51;1.75;;;1.20;;
48285;SDS011;34102;47.716;10.296;2022-11-06T15:01:56;2.28;;;1.38;;
48285;SDS011;34102;47.716;10.296;2022-11-06T15:04:29;11.75;;;8.30;;
48285;SDS011;34102;47.716;10.296;2022-11-06T15:07:00;1.38;;;1.00;;
48285;SDS011;34102;47.716;10.296;2022-11-06T15:12:02;2.53;;;1.00;;
48285;SDS011;34102;47.716;10.296;2022-11-06T15:17:02;1.90;;;1.10;;
48285;SDS011;34102;47.716;10.296;2022-11-06T15:19:36;17.90;;;12.25;;
48285;SDS011;34102;47.716;10.296;2022-11-06T15:24:57;2.65;;;1.58;;
48285;SDS011;34102;47.716;10.296;2022-11-06T15:27:26;1.63;;;0.80;;
48285;SDS011;34102;47.716;10.296;2022-11-06T15:29:53;1.33;;;0.70;;
48285;SDS011;34102;47.716;10.296;2022-11-06T15:32:23;1.40;;;0.60;;
48285;SDS011;34102;47.716;10.296;2022-11-06T15:34:52;1.40;;;0.45;;
48285;SDS011;34102;47.716;10.296;2022-11-06T15:37:20;0.82;;;0.60;;
48285;SDS011;34102;47.716;10.296;2022-11-06T15:39:54;1.60;;;0.82;;
48285;SDS011;34102;47.716;10.296;2022-11-06T15:42:35;1.80;;;1.33;;
48285;SDS011;34102;47.716;10.296;2022-11-06T15:45:05;7.00;;;2.92;;
48285;SDS011;34102;47.716;10.296;2022-11-06T15:47:32;4.70;;;3.28;;
48285;SDS011;34102;47.716;10.296;2022-11-06T15:50:15;6.60;;;4.30;;
48285;SDS011;34102;47.716;10.296;2022-11-06T15:52:41;4.18;;;3.10;;
48285;SDS011;34102;47.716;10.296;2022-11-06T15:55:13;3.92;;;2.20;;
48285;SDS011;34102;47.716;10.296;2022-11-06T15:57:39;1.95;;;1.30;;
48285;SDS011;34102;47.716;10.296;2022-11-06T16:00:08;1.38;;;1.20;;
48285;SDS011;34102;47.716;10.296;2022-11-06T16:02:47;4.90;;;2.75;;
48285;SDS011;34102;47.716;10.296;2022-11-06T16:05:12;4.35;;;2.60;;
48285;SDS011;34102;47.716;10.296;2022-11-06T16:07:39;2.13;;;1.38;;
48285;SDS011;34102;47.716;10.296;2022-11-06T16:10:05;2.08;;;1.63;;
48285;SDS011;34102;47.716;10.296;2022-11-06T16:12:31;2.28;;;1.80;;
48285;SDS011;34102;47.716;10.296;2022-11-06T16:14:56;1.85;;;1.40;;
48285;SDS011;34102;47.716;10.296;2022-11-06T16:17:22;3.83;;;2.28;;
48285;SDS011;34102;47.716;10.296;2022-11-06T16:19:49;3.50;;;2.00;;
48285;SDS011;34102;47.716;10.296;2022-11-06T16:22:16;3.03;;;1.92;;
48285;SDS011;34102;47.716;10.296;2022-11-06T16:24:43;3.67;;;2.30;;
48285;SDS011;34102;47.716;10.296;2022-11-06T16:27:09;6.72;;;2.42;;
48285;SDS011;34102;47.716;10.296;2022-11-06T16:29:35;5.60;;;2.28;;
48285;SDS011;34102;47.716;10.296;2022-11-06T16:32:08;3.75;;;2.30;;
48285;SDS011;34102;47.716;10.296;2022-11-06T16:34:39;3.95;;;2.42;;
48285;SDS011;34102;47.716;10.296;2022-11-06T16:44:44;2.83;;;1.85;;
48285;SDS011;34102;47.716;10.296;2022-11-06T16:49:35;3.97;;;3.05;;
48285;SDS011;34102;47.716;10.296;2022-11-06T16:52:01;6.85;;;2.95;;
48285;SDS011;34102;47.716;10.296;2022-11-06T16:54:43;5.50;;;3.08;;
48285;SDS011;34102;47.716;10.296;2022-11-06T16:57:09;4.18;;;3.58;;
48285;SDS011;34102;47.716;10.296;2022-11-06T16:59:35;5.53;;;4.18;;
48285;SDS011;34102;47.716;10.296;2022-11-06T17:02:01;6.72;;;4.40;;
48285;SDS011;34102;47.716;10.296;2022-11-06T17:04:26;5.25;;;3.90;;
48285;SDS011;34102;47.716;10.296;2022-11-06T17:06:54;6.18;;;3.83;;
48285;SDS011;34102;47.716;10.296;2022-11-06T17:11:46;2.58;;;1.88;;
48285;SDS011;34102;47.716;10.296;2022-11-06T17:14:22;2.90;;;1.52;;
48285;SDS011;34102;47.716;10.296;2022-11-06T17:16:57;8.27;;;6.03;;
48285;SDS011;34102;47.716;10.296;2022-11-06T17:19:23;4.88;;;3.40;;
48285;SDS011;34102;47.716;10.296;2022-11-06T17:21:49;2.15;;;1.67;;
48285;SDS011;34102;47.716;10.296;2022-11-06T17:24:15;2.30;;;1.60;;
48285;SDS011;34102;47.716;10.296;2022-11-06T17:26:49;3.88;;;2.97;;
48285;SDS011;34102;47.716;10.296;2022-11-06T17:29:17;3.13;;;2.15;;
48285;SDS011;34102;47.716;10.296;2022-11-06T17:31:48;3.33;;;2.22;;
48285;SDS011;34102;47.716;10.296;2022-11-06T17:34:17;2.58;;;1.17;;
48285;SDS011;34102;47.716;10.296;2022-11-06T17:36:42;2.30;;;1.25;;
48285;SDS011;34102;47.716;10.296;2022-11-06T17:39:08;2.38;;;1.63;;
48285;SDS011;34102;47.716;10.296;2022-11-06T17:41:34;1.67;;;1.10;;
48285;SDS011;34102;47.716;10.296;2022-11-06T17:44:06;3.58;;;2.25;;
48285;SDS011;34102;47.716;10.296;2022-11-06T17:46:32;4.28;;;2.53;;
48285;SDS011;34102;47.716;10.296;2022-11-06T17:48:58;4.68;;;3.13;;
48285;SDS011;34102;47.716;10.296;2022-11-06T17:51:24;5.00;;;2.80;;
48285;SDS011;34102;47.716;10.296;2022-11-06T17:54:08;5.97;;;2.70;;
48285;SDS011;34102;47.716;10.296;2022-11-06T17:56:33;5.35;;;2.55;;
48285;SDS011;34102;47.716;10.296;2022-11-06T17:58:59;2.95;;;1.70;;
48285;SDS011;34102;47.716;10.296;2022-11-06T18:01:24;1.88;;;1.35;;
48285;SDS011;34102;47.716;10.296;2022-11-06T18:03:49;3.53;;;1.52;;
48285;SDS011;34102;47.716;10.296;2022-11-06T18:06:15;2.70;;;1.50;;
48285;SDS011;34102;47.716;10.296;2022-11-06T18:08:40;2.17;;;1.23;;
48285;SDS011;34102;47.716;10.296;2022-11-06T18:11:06;2.67;;;1.77;;
48285;SDS011;34102;47.716;10.296;2022-11-06T18:13:32;2.45;;;1.75;;
48285;SDS011;34102;47.716;10.296;2022-11-06T18:15:57;2.58;;;1.27;;
48285;SDS011;34102;47.716;10.296;2022-11-06T18:18:23;2.33;;;1.70;;
48285;SDS011;34102;47.716;10.296;2022-11-06T18:20:48;2.28;;;1.40;;
48285;SDS011;34102;47.716;10.296;2022-11-06T18:23:14;2.28;;;1.42;;
48285;SDS011;34102;47.716;10.296;2022-11-06T18:25:39;2.17;;;1.48;;
48285;SDS011;34102;47.716;10.296;2022-11-06T18:28:04;2.42;;;1.50;;
48285;SDS011;34102;47.716;10.296;2022-11-06T18:30:30;2.53;;;1.73;;
48285;SDS011;34102;47.716;10.296;2022-11-06T18:32:57;4.22;;;2.47;;
48285;SDS011;34102;47.716;10.296;2022-11-06T18:35:22;4.03;;;2.80;;
48285;SDS011;34102;47.716;10.296;2022-11-06T18:37:47;5.97;;;3.53;;
48285;SDS011;34102;47.716;10.296;2022-11-06T18:40:13;5.87;;;3.70;;
48285;SDS011;34102;47.716;10.296;2022-11-06T18:42:38;5.22;;;3.30;;
48285;SDS011;34102;47.716;10.296;2022-11-06T18:45:04;7.60;;;3.65;;
48285;SDS011;34102;47.716;10.296;2022-11-06T18:47:29;5.28;;;3.28;;
48285;SDS011;34102;47.716;10.296;2022-11-06T18:49:57;4.53;;;3.20;;
48285;SDS011;34102;47.716;10.296;2022-11-06T18:52:22;4.82;;;3.00;;
48285;SDS011;34102;47.716;10.296;2022-11-06T18:54:51;5.60;;;3.20;;
48285;SDS011;34102;47.716;10.296;2022-11-06T18:57:16;4.65;;;2.20;;
48285;SDS011;34102;47.716;10.296;2022-11-06T18:59:42;3.88;;;2.38;;
48285;SDS011;34102;47.716;10.296;2022-11-06T19:02:12;2.55;;;1.63;;
48285;SDS011;34102;47.716;10.296;2022-11-06T19:04:37;3.87;;;2.00;;
48285;SDS011;34102;47.716;10.296;2022-11-06T19:07:03;3.17;;;1.70;;
48285;SDS011;34102;47.716;10.296;2022-11-06T19:09:31;5.63;;;2.45;;
48285;SDS011;34102;47.716;10.296;2022-11-06T19:11:56;4.57;;;3.10;;
48285;SDS011;34102;47.716;10.296;2022-11-06T19:14:29;19.73;;;10.13;;
48285;SDS011;34102;47.716;10.296;2022-11-06T19:16:54;7.53;;;4.60;;
48285;SDS011;34102;47.716;10.296;2022-11-06T19:19:19;4.78;;;3.10;;
48285;SDS011;34102;47.716;10.296;2022-11-06T19:21:44;3.97;;;2.75;;
48285;SDS011;34102;47.716;10.296;2022-11-06T19:24:12;4.03;;;2.33;;
48285;SDS011;34102;47.716;10.296;2022-11-06T19:26:37;2.88;;;1.60;;
48285;SDS011;34102;47.716;10.296;2022-11-06T19:29:05;3.38;;;1.85;;
48285;SDS011;34102;47.716;10.296;2022-11-06T19:31:32;3.88;;;2.05;;
48285;SDS011;34102;47.716;10.296;2022-11-06T19:33:58;2.20;;;1.42;;
48285;SDS011;34102;47.716;10.296;2022-11-06T19:36:23;5.28;;;1.90;;
48285;SDS011;34102;47.716;10.296;2022-11-06T19:38:49;3.75;;;2.15;;
48285;SDS011;34102;47.716;10.296;2022-11-06T19:41:14;3.53;;;2.15;;
48285;SDS011;34102;47.716;10.296;2022-11-06T19:43:39;3.72;;;2.17;;
48285;SDS011;34102;47.716;10.296;2022-11-06T19:46:05;3.80;;;2.60;;
48285;SDS011;34102;47.716;10.296;2022-11-06T19:48:31;4.50;;;2.80;;
48285;SDS011;34102;47.716;10.296;2022-11-06T19:50:57;5.13;;;3.20;;
48285;SDS011;34102;47.716;10.296;2022-11-06T19:53:23;6.32;;;3.75;;
48285;SDS011;34102;47.716;10.296;2022-11-06T19:55:48;6.05;;;3.95;;
48285;SDS011;34102;47.716;10.296;2022-11-06T19:58:17;8.43;;;3.10;;
48285;SDS011;34102;47.716;10.296;2022-11-06T20:00:43;3.67;;;2.47;;
48285;SDS011;34102;47.716;10.296;2022-11-06T20:03:09;4.22;;;2.60;;
48285;SDS011;34102;47.716;10.296;2022-11-06T20:05:35;4.88;;;3.22;;
48285;SDS011;34102;47.716;10.296;2022-11-06T20:08:01;3.95;;;2.28;;
48285;SDS011;34102;47.716;10.296;2022-11-06T20:10:26;4.43;;;2.63;;
48285;SDS011;34102;47.716;10.296;2022-11-06T20:12:51;4.85;;;3.28;;
48285;SDS011;34102;47.716;10.296;2022-11-06T20:15:17;3.22;;;2.20;;
48285;SDS011;34102;47.716;10.296;2022-11-06T20:17:42;3.43;;;2.10;;
48285;SDS011;34102;47.716;10.296;2022-11-06T20:20:08;2.38;;;1.30;;
48285;SDS011;34102;47.716;10.296;2022-11-06T20:22:33;0.98;;;0.43;;
48285;SDS011;34102;47.716;10.296;2022-11-06T20:24:58;1.75;;;0.63;;
48285;SDS011;34102;47.716;10.296;2022-11-06T20:27:24;0.93;;;0.40;;
48285;SDS011;34102;47.716;10.296;2022-11-06T20:29:49;0.68;;;0.20;;
48285;SDS011;34102;47.716;10.296;2022-11-06T20:32:14;4.60;;;0.38;;
48285;SDS011;34102;47.716;10.296;2022-11-06T20:34:41;0.65;;;0.30;;
48285;SDS011;34102;47.716;10.296;2022-11-06T20:37:06;0.50;;;0.30;;
48285;SDS011;34102;47.716;10.296;2022-11-06T20:39:31;1.35;;;0.75;;
48285;SDS011;34102;47.716;10.296;2022-11-06T20:41:59;0.63;;;0.43;;
48285;SDS011;34102;47.716;10.296;2022-11-06T20:44:25;1.67;;;0.50;;
48285;SDS011;34102;47.716;10.296;2022-11-06T20:46:50;0.70;;;0.28;;
48285;SDS011;34102;47.716;10.296;2022-11-06T20:49:15;0.85;;;0.30;;
48285;SDS011;34102;47.716;10.296;2022-11-06T20:51:40;1.27;;;0.40;;
48285;SDS011;34102;47.716;10.296;2022-11-06T20:54:06;0.98;;;0.50;;
48285;SDS011;34102;47.716;10.296;2022-11-06T20:56:31;2.20;;;0.30;;
48285;SDS011;34102;47.716;10.296;2022-11-06T20:58:56;1.52;;;0.25;;
48285;SDS011;34102;47.716;10.296;2022-11-06T21:01:23;0.68;;;0.20;;
48285;SDS011;34102;47.716;10.296;2022-11-06T21:03:49;1.40;;;0.38;;
48285;SDS011;34102;47.716;10.296;2022-11-06T21:06:14;4.35;;;0.40;;
48285;SDS011;34102;47.716;10.296;2022-11-06T21:08:40;1.17;;;0.47;;
48285;SDS011;34102;47.716;10.296;2022-11-06T21:11:09;1.00;;;0.40;;
48285;SDS011;34102;47.716;10.296;2022-11-06T21:13:36;0.80;;;0.20;;
48285;SDS011;34102;47.716;10.296;2022-11-06T21:16:03;0.85;;;0.50;;
48285;SDS011;34102;47.716;10.296;2022-11-06T21:18:28;0.60;;;0.30;;
48285;SDS011;34102;47.716;10.296;2022-11-06T21:20:54;0.93;;;0.38;;
48285;SDS011;34102;47.716;10.296;2022-11-06T21:23:19;0.90;;;0.50;;
48285;SDS011;34102;47.716;10.296;2022-11-06T21:25:45;0.90;;;0.32;;
48285;SDS011;34102;47.716;10.296;2022-11-06T21:28:10;0.70;;;0.40;;
